Oologah, Oklahoma
Current Conditions -  °F | °C
As of 5:55 PM on Sunday 21 Dec 2014 (Local Time) from KGCM Reporting Station
Scattered Clouds Scattered Clouds  
Wind Chill: 40°   Ceiling: Unl
Heat Index: 45°   Visibility: 10mi
Dew Point: 41°   Wind: 8mph
Humidity: 87%   Direction: 150°SSE
Pressure: 29.87"   Gusts: NA
Location:  36.45°N, 95.71°W
Report Text: KGCM 212355Z AUTO 15007KT 10SM SCT026 07/05 A2987 RMK AO2
Loading
Personal Weather Stations






























Interactive Weather Map New forecast layout! Learn more

10-Day Weather Forecast

Advertisements
Track Severe Weather on mobile